Time;durP1;ratioP1;P1;durP2;ratioP2;P2;SDS_P1;SDS_P2;PMS_P1;PMS_P2;Temp;Humidity;BMP_temperature;BMP_pressure;BME280_temperature;BME280_humidity;BME280_pressure;Samples;Min_cycle;Max_cycle;Signal;HPM_P1;HPM_P2
2022/09/02 00:00:52;;;;;;;20.57;18.67;;;;;;;18.75;95.13;92578.13;5030950;28;20221;-70
2022/09/02 00:03:19;;;;;;;19.35;17.23;;;;;;;18.71;95.69;92573.78;5031399;28;20197;-70
2022/09/02 00:05:45;;;;;;;20.73;18.53;;;;;;;18.78;96.02;92581.97;5029587;28;20230;-71
2022/09/02 00:08:10;;;;;;;19.27;17.47;;;;;;;18.59;96.91;92581.72;5029841;28;20240;-70
2022/09/02 00:10:40;;;;;;;20.33;18.33;;;;;;;18.43;99.03;92576.28;5029158;28;20217;-71
2022/09/02 00:13:08;;;;;;;19.23;17.43;;;;;;;18.55;97.86;92580.84;5017566;28;20202;-72
2022/09/02 00:15:34;;;;;;;20.60;18.60;;;;;;;18.53;97.76;92593.59;5011446;28;20230;-70
2022/09/02 00:18:00;;;;;;;19.80;17.90;;;;;;;18.51;97.77;92590.50;5030303;28;20215;-71
2022/09/02 00:20:27;;;;;;;20.70;18.70;;;;;;;18.39;97.74;92571.97;5030649;28;20239;-70
2022/09/02 00:22:52;;;;;;;19.87;17.87;;;;;;;18.40;98.00;92579.56;5031049;28;20189;-70
2022/09/02 00:25:17;;;;;;;20.30;18.40;;;;;;;18.40;97.82;92594.66;5030877;28;20304;-71
2022/09/02 00:27:43;;;;;;;21.57;19.27;;;;;;;18.46;98.08;92603.94;5030712;28;20186;-70
2022/09/02 00:30:09;;;;;;;23.47;18.70;;;;;;;18.36;98.31;92599.81;5030453;28;20229;-71
2022/09/02 00:32:34;;;;;;;21.90;19.17;;;;;;;18.34;99.05;92602.00;5030551;28;20173;-70
2022/09/02 00:35:00;;;;;;;22.17;19.83;;;;;;;18.48;98.55;92620.25;5030712;28;20227;-70
2022/09/02 00:37:26;;;;;;;20.17;18.17;;;;;;;18.36;98.66;92593.75;5030586;28;20188;-70
2022/09/02 00:39:53;;;;;;;21.27;19.23;;;;;;;18.52;98.61;92613.97;5029886;28;20235;-70
2022/09/02 00:42:19;;;;;;;21.53;19.43;;;;;;;18.27;99.67;92595.69;5030553;28;20253;-71
2022/09/02 00:44:45;;;;;;;26.57;19.70;;;;;;;18.46;98.91;92619.81;5030869;28;20253;-69
2022/09/02 00:47:10;;;;;;;22.13;19.47;;;;;;;18.62;98.31;92618.06;5030368;28;20220;-71
2022/09/02 00:49:40;;;;;;;22.27;19.90;;;;;;;18.51;98.88;92622.22;5030087;28;20239;-70
2022/09/02 00:52:18;;;;;;;22.13;20.03;;;;;;;18.29;99.26;92614.66;5030361;28;21010;-70
2022/09/02 00:54:58;;;;;;;21.77;19.53;;;;;;;18.25;99.82;92600.53;5029737;28;20247;-70
2022/09/02 00:57:29;;;;;;;21.30;19.30;;;;;;;18.26;100.00;92621.34;5030037;28;20177;-71
2022/09/02 01:00:00;;;;;;;21.97;19.83;;;;;;;18.34;100.00;92622.38;5029949;28;20239;-70
2022/09/02 01:02:30;;;;;;;22.13;18.70;;;;;;;18.32;99.55;92617.41;5029708;28;20201;-70
2022/09/02 01:04:58;;;;;;;23.00;20.07;;;;;;;18.42;99.08;92613.63;5030132;28;20225;-70
2022/09/02 01:07:27;;;;;;;21.63;19.43;;;;;;;18.22;99.07;92604.59;5030024;28;20237;-71
2022/09/02 01:09:58;;;;;;;23.00;19.57;;;;;;;18.37;99.33;92619.84;5029727;28;20237;-70
2022/09/02 01:12:26;;;;;;;21.77;19.60;;;;;;;18.25;99.55;92619.03;5029932;28;20215;-71
2022/09/02 01:14:51;;;;;;;21.83;19.47;;;;;;;18.31;99.58;92618.50;5029683;28;20224;-70
2022/09/02 01:17:19;;;;;;;21.93;19.43;;;;;;;18.25;99.09;92600.53;5029895;28;20207;-70
2022/09/02 01:19:49;;;;;;;23.67;20.00;;;;;;;18.42;98.29;92616.25;5029348;28;20251;-70
2022/09/02 01:22:20;;;;;;;20.73;18.60;;;;;;;18.50;97.73;92615.41;5030251;28;20183;-70
2022/09/02 01:24:46;;;;;;;21.37;18.27;;;;;;;18.38;98.46;92610.09;5029781;28;20252;-70
2022/09/02 01:27:17;;;;;;;20.27;17.97;;;;;;;18.30;98.45;92595.03;5028846;28;20202;-71
2022/09/02 01:29:43;;;;;;;25.20;19.80;;;;;;;18.45;98.27;92608.44;5028697;28;20236;-70
2022/09/02 01:32:08;;;;;;;21.37;18.73;;;;;;;18.57;98.22;92626.22;5042894;28;20229;-72
2022/09/02 01:34:34;;;;;;;22.70;19.67;;;;;;;18.61;97.96;92605.97;5033353;28;20237;-70
2022/09/02 01:36:59;;;;;;;22.10;18.80;;;;;;;18.56;97.60;92566.50;5041829;28;20193;-71
2022/09/02 01:39:24;;;;;;;21.33;18.90;;;;;;;19.15;93.59;92588.81;5049399;28;20247;-70
2022/09/02 01:41:51;;;;;;;21.70;18.80;;;;;;;18.76;99.02;92584.16;5048276;28;20203;-71
2022/09/02 01:44:17;;;;;;;20.83;18.87;;;;;;;18.70;99.41;92582.84;5029772;28;20339;-70
2022/09/02 01:46:43;;;;;;;23.30;19.57;;;;;;;18.65;100.00;92575.09;5028461;28;20216;-70
2022/09/02 01:49:09;;;;;;;23.60;19.40;;;;;;;18.43;100.00;92549.06;5029605;28;20284;-70
2022/09/02 01:51:34;;;;;;;25.53;21.00;;;;;;;18.43;100.00;92557.78;5038118;28;20928;-70
2022/09/02 01:54:00;;;;;;;23.40;20.50;;;;;;;18.27;100.00;92553.41;5049325;28;20247;-72
2022/09/02 01:56:25;;;;;;;24.63;20.00;;;;;;;18.45;100.00;92560.88;5041718;28;20239;-71
2022/09/02 01:58:51;;;;;;;22.70;20.43;;;;;;;18.48;100.00;92570.00;5029232;28;20236;-70
2022/09/02 02:01:16;;;;;;;21.97;19.57;;;;;;;18.37;100.00;92558.28;5029651;28;20219;-71
2022/09/02 02:03:41;;;;;;;22.20;19.83;;;;;;;18.44;100.00;92558.56;5029527;28;20252;-72
2022/09/02 02:06:12;;;;;;;22.23;19.47;;;;;;;18.39;100.00;92558.75;5034801;28;20204;-70
2022/09/02 02:08:38;;;;;;;23.37;20.87;;;;;;;18.18;100.00;92550.09;5048635;28;20228;-70
2022/09/02 02:11:05;;;;;;;23.67;20.43;;;;;;;17.90;100.00;92522.69;5044406;28;20189;-70
2022/09/02 02:13:30;;;;;;;22.80;20.03;;;;;;;18.15;100.00;92570.00;5028828;28;20311;-71
2022/09/02 02:15:56;;;;;;;22.17;19.73;;;;;;;18.11;100.00;92555.91;5029115;28;20192;-71
2022/09/02 02:18:21;;;;;;;23.97;19.13;;;;;;;18.19;100.00;92552.41;5030093;28;20192;-69
2022/09/02 02:20:47;;;;;;;23.07;20.63;;;;;;;18.25;100.00;92563.53;5028765;28;20252;-70
2022/09/02 02:23:13;;;;;;;23.80;21.27;;;;;;;18.20;100.00;92563.72;5029941;28;20192;-71
2022/09/02 02:25:38;;;;;;;24.07;20.07;;;;;;;18.20;100.00;92563.72;5028869;28;20229;-70
2022/09/02 02:28:03;;;;;;;20.97;18.13;;;;;;;18.14;100.00;92557.09;5029854;28;20194;-71
2022/09/02 02:30:29;;;;;;;23.97;19.47;;;;;;;18.19;100.00;92562.97;5029173;28;20221;-70
2022/09/02 02:32:54;;;;;;;19.97;17.83;;;;;;;18.21;100.00;92565.28;5029158;28;20199;-70
2022/09/02 02:35:20;;;;;;;19.50;17.43;;;;;;;18.24;100.00;92575.22;5029359;28;20229;-70
2022/09/02 02:37:48;;;;;;;19.07;16.93;;;;;;;18.15;100.00;92545.47;5029222;28;20214;-70
2022/09/02 02:40:14;;;;;;;17.67;15.83;;;;;;;18.19;100.00;92568.25;5029056;28;20237;-72
2022/09/02 02:42:40;;;;;;;18.83;16.93;;;;;;;18.31;100.00;92578.88;5032057;28;20222;-69
2022/09/02 02:45:08;;;;;;;20.93;17.30;;;;;;;18.24;100.00;92575.97;5032741;28;20221;-70
2022/09/02 02:47:37;;;;;;;19.60;17.73;;;;;;;18.26;100.00;92573.78;5033112;28;20236;-70
2022/09/02 02:50:04;;;;;;;18.93;17.13;;;;;;;18.23;100.00;92576.28;5032869;28;20259;-70
2022/09/02 02:52:29;;;;;;;20.57;17.03;;;;;;;18.26;100.00;92579.06;5048796;28;20193;-69
2022/09/02 02:54:54;;;;;;;18.60;16.53;;;;;;;18.05;100.00;92573.06;5041486;28;20220;-70
2022/09/02 02:57:20;;;;;;;18.80;17.00;;;;;;;18.26;100.00;92580.91;5032970;28;20220;-70
2022/09/02 02:59:45;;;;;;;19.47;17.53;;;;;;;18.31;100.00;92586.00;5032014;28;20232;-69
2022/09/02 03:02:10;;;;;;;19.37;17.33;;;;;;;18.24;100.00;92580.50;5032361;28;20213;-70
2022/09/02 03:04:38;;;;;;;20.37;17.40;;;;;;;18.24;100.00;92577.84;5032570;28;20243;-70
2022/09/02 03:07:06;;;;;;;19.53;17.63;;;;;;;18.25;100.00;92582.81;5032574;28;20239;-70
2022/09/02 03:09:32;;;;;;;22.53;19.30;;;;;;;18.18;100.00;92561.41;5032889;28;20255;-70
2022/09/02 03:11:58;;;;;;;20.40;18.40;;;;;;;18.17;100.00;92554.59;5032284;28;20172;-70
2022/09/02 03:14:24;;;;;;;19.40;17.60;;;;;;;18.06;100.00;92579.09;5032430;28;20283;-70
2022/09/02 03:16:49;;;;;;;20.17;18.07;;;;;;;17.92;100.00;92574.09;5032068;28;20200;-69
2022/09/02 03:19:14;;;;;;;20.53;18.43;;;;;;;18.08;100.00;92576.91;5032010;28;20243;-70
2022/09/02 03:21:41;;;;;;;18.87;16.87;;;;;;;18.13;100.00;92566.13;5032126;28;20177;-70
2022/09/02 03:24:08;;;;;;;17.80;16.00;;;;;;;18.15;100.00;92553.38;5032316;28;20225;-70
2022/09/02 03:26:33;;;;;;;18.93;17.03;;;;;;;18.32;100.00;92571.72;5032151;28;20212;-69
2022/09/02 03:28:59;;;;;;;17.90;16.20;;;;;;;18.22;100.00;92562.31;5031997;28;20240;-70
2022/09/02 03:31:27;;;;;;;18.80;16.83;;;;;;;18.34;100.00;92572.13;5032228;28;20214;-69
2022/09/02 03:33:52;;;;;;;17.20;15.60;;;;;;;18.13;100.00;92545.78;5031762;28;20225;-70
2022/09/02 03:36:22;;;;;;;17.03;15.33;;;;;;;18.25;100.00;92574.88;5032408;28;20197;-69
2022/09/02 03:38:47;;;;;;;17.37;15.57;;;;;;;18.18;100.00;92571.97;5031808;28;20232;-69
2022/09/02 03:41:12;;;;;;;17.33;15.53;;;;;;;18.02;100.00;92568.41;5031601;28;20194;-70
2022/09/02 03:43:38;;;;;;;16.57;15.13;;;;;;;17.91;100.00;92583.13;5031311;28;20207;-70
2022/09/02 03:46:04;;;;;;;17.80;16.03;;;;;;;17.71;100.00;92573.34;5031111;28;20220;-71
2022/09/02 03:48:29;;;;;;;17.43;15.63;;;;;;;17.80;100.00;92584.59;5031338;28;20214;-70
2022/09/02 03:50:55;;;;;;;15.60;14.00;;;;;;;17.77;100.00;92571.25;5031280;28;20229;-70
2022/09/02 03:53:20;;;;;;;14.53;13.27;;;;;;;17.80;100.00;92578.53;5031018;28;20190;-69
2022/09/02 03:55:45;;;;;;;14.87;13.57;;;;;;;18.06;100.00;92602.88;5032796;28;20232;-70
2022/09/02 03:58:11;;;;;;;15.40;13.80;;;;;;;17.99;100.00;92586.78;5051858;28;20188;-70
2022/09/02 04:00:37;;;;;;;15.77;14.43;;;;;;;18.20;100.00;92617.38;5049740;28;20259;-70
2022/09/02 04:03:03;;;;;;;15.10;13.80;;;;;;;18.15;100.00;92616.81;5031717;28;20195;-70
2022/09/02 04:05:29;;;;;;;15.33;13.83;;;;;;;17.98;100.00;92624.88;5031612;28;20237;-70
2022/09/02 04:07:55;;;;;;;15.03;13.43;;;;;;;17.82;100.00;92611.44;5049391;28;20284;-70
2022/09/02 04:10:21;;;;;;;14.07;12.87;;;;;;;17.73;100.00;92621.31;5050137;28;20234;-70
2022/09/02 04:12:47;;;;;;;14.90;13.63;;;;;;;17.84;100.00;92633.03;5031915;28;20263;-70
2022/09/02 04:15:13;;;;;;;14.83;13.57;;;;;;;17.84;100.00;92632.28;5031214;28;20216;-70
2022/09/02 04:17:40;;;;;;;15.47;14.07;;;;;;;17.83;100.00;92643.91;5030748;28;20231;-70
2022/09/02 04:20:09;;;;;;;15.30;13.93;;;;;;;17.88;100.00;92646.38;5030715;28;20232;-70
2022/09/02 04:22:35;;;;;;;14.50;13.17;;;;;;;17.87;100.00;92639.56;5030947;28;20200;-71
2022/09/02 04:25:00;;;;;;;15.90;14.50;;;;;;;17.62;100.00;92611.47;5030878;28;20255;-70
2022/09/02 04:27:26;;;;;;;16.07;14.50;;;;;;;17.85;100.00;92642.53;5030835;28;20232;-70
2022/09/02 04:29:51;;;;;;;16.40;14.90;;;;;;;17.78;100.00;92631.69;5030266;28;20232;-70
2022/09/02 04:32:17;;;;;;;14.33;13.07;;;;;;;17.79;100.00;92632.47;5045265;28;20199;-71
2022/09/02 04:34:42;;;;;;;14.17;12.87;;;;;;;17.85;100.00;92647.81;5050670;28;20247;-70
2022/09/02 04:37:08;;;;;;;14.80;13.43;;;;;;;17.91;100.00;92651.00;5037477;28;20191;-70
2022/09/02 04:39:33;;;;;;;16.57;15.03;;;;;;;17.92;100.00;92644.63;5030408;28;20325;-70
2022/09/02 04:41:58;;;;;;;15.80;14.30;;;;;;;18.02;100.00;92660.88;5030188;28;20249;-70
2022/09/02 04:44:24;;;;;;;15.23;13.93;;;;;;;17.92;100.00;92660.47;5030632;28;20240;-70
2022/09/02 04:46:50;;;;;;;16.70;13.57;;;;;;;18.00;100.00;92659.66;5030037;28;20218;-70
2022/09/02 04:49:16;;;;;;;16.30;14.80;;;;;;;17.78;100.00;92636.97;5030447;28;20351;-70
2022/09/02 04:51:41;;;;;;;15.73;14.33;;;;;;;18.02;100.00;92660.09;5030209;28;20211;-70
2022/09/02 04:54:07;;;;;;;14.67;13.23;;;;;;;17.94;100.00;92645.88;5030507;28;20227;-68
2022/09/02 04:56:32;;;;;;;14.90;13.50;;;;;;;18.07;100.00;92657.28;5030135;28;20185;-70
2022/09/02 04:58:59;;;;;;;16.33;14.20;;;;;;;17.95;100.00;92636.06;5029941;28;20510;-70
2022/09/02 05:01:27;;;;;;;16.13;14.53;;;;;;;17.94;100.00;92637.16;5030189;28;20198;-71
2022/09/02 05:03:53;;;;;;;15.10;13.80;;;;;;;18.14;100.00;92666.22;5029905;28;20238;-70
2022/09/02 05:06:25;;;;;;;15.07;13.77;;;;;;;18.14;100.00;92649.59;5030278;28;20214;-70
2022/09/02 05:08:50;;;;;;;15.43;13.93;;;;;;;18.16;100.00;92647.41;5029732;28;20236;-70
2022/09/02 05:11:21;;;;;;;15.20;13.67;;;;;;;18.27;100.00;92667.06;5030197;28;20196;-70
2022/09/02 05:13:52;;;;;;;14.20;12.97;;;;;;;18.20;100.00;92664.94;5010675;28;20240;-70
2022/09/02 05:16:20;;;;;;;14.43;12.97;;;;;;;18.32;100.00;92670.25;5023259;28;20185;-70
2022/09/02 05:18:45;;;;;;;14.27;12.77;;;;;;;18.43;100.00;92668.81;5049743;28;20189;-71
2022/09/02 05:21:11;;;;;;;13.33;12.27;;;;;;;18.51;100.00;92675.09;5043045;28;20189;-70
2022/09/02 05:23:36;;;;;;;15.23;14.03;;;;;;;18.32;100.00;92667.63;5029934;28;20181;-70
2022/09/02 05:26:06;;;;;;;14.50;13.30;;;;;;;18.37;100.00;92685.16;5029952;28;20213;-71
2022/09/02 05:28:33;;;;;;;14.13;12.93;;;;;;;18.42;100.00;92655.91;5029067;28;20221;-73
2022/09/02 05:31:07;;;;;;;13.87;12.73;;;;;;;18.64;99.61;92668.78;5029661;28;20271;-71
2022/09/02 05:33:39;;;;;;;14.30;13.10;;;;;;;18.61;99.67;92672.06;5029706;28;20205;-71
2022/09/02 05:36:06;;;;;;;13.87;12.67;;;;;;;18.67;98.25;92652.25;5030063;28;20248;-71
2022/09/02 05:38:31;;;;;;;13.23;11.93;;;;;;;18.75;97.87;92664.63;5029451;28;20191;-71
2022/09/02 05:40:58;;;;;;;13.80;12.70;;;;;;;18.81;97.23;92658.03;5065038;28;20170;-70
2022/09/02 05:43:24;;;;;;;13.43;12.23;;;;;;;19.00;96.25;92671.53;5036140;28;20269;-71
2022/09/02 05:45:49;;;;;;;13.73;12.70;;;;;;;18.67;95.77;92605.44;5028834;28;20225;-70
2022/09/02 05:51:03;;;;;;;14.00;12.73;;;;;;;19.06;94.99;92654.31;5043698;28;20227;-71
2022/09/02 05:53:29;;;;;;;12.90;11.63;;;;;;;19.27;93.75;92662.94;5049123;28;20176;-70
2022/09/02 05:55:55;;;;;;;12.80;11.73;;;;;;;19.41;93.83;92666.06;5048393;28;20207;-70
2022/09/02 05:58:21;;;;;;;13.27;12.17;;;;;;;19.45;93.57;92672.25;5049535;28;20189;-71
2022/09/02 06:00:46;;;;;;;14.57;13.20;;;;;;;19.56;91.91;92668.06;5045991;28;20327;-70
2022/09/02 06:03:12;;;;;;;12.40;11.20;;;;;;;19.46;90.92;92633.28;5029920;28;20197;-71
2022/09/02 06:05:39;;;;;;;12.53;11.53;;;;;;;19.70;90.05;92670.38;5029809;28;20253;-70
2022/09/02 06:08:05;;;;;;;12.85;11.82;;;;;;;19.60;90.59;92657.56;5049435;28;20284;-70
2022/09/02 06:10:30;;;;;;;12.20;11.30;;;;;;;19.59;91.15;92664.75;5048608;28;20237;-70
2022/09/02 06:12:56;;;;;;;13.30;12.10;;;;;;;19.51;89.51;92649.75;5017210;28;20238;-70
2022/09/02 06:15:22;;;;;;;12.40;11.45;;;;;;;19.76;89.16;92671.69;5009489;28;20254;-70
2022/09/02 06:17:47;;;;;;;13.35;12.35;;;;;;;19.91;88.61;92663.84;5031762;28;20225;-69
2022/09/02 06:20:12;;;;;;;12.90;11.87;;;;;;;19.84;87.88;92670.81;5033207;28;20233;-70
2022/09/02 06:22:38;;;;;;;11.85;10.98;;;;;;;19.95;85.79;92671.91;5033139;28;20194;-70
2022/09/02 06:25:03;;;;;;;11.33;10.43;;;;;;;19.80;85.92;92672.59;5033103;28;20241;-70
2022/09/02 06:27:29;;;;;;;12.43;11.43;;;;;;;19.74;87.47;92674.69;5033202;28;20236;-70
2022/09/02 06:29:55;;;;;;;13.57;12.17;;;;;;;19.79;87.96;92677.09;5032859;28;20226;-70
2022/09/02 06:32:20;;;;;;;11.75;10.85;;;;;;;19.61;87.78;92670.47;5032909;28;20181;-69
2022/09/02 06:34:45;;;;;;;12.83;11.77;;;;;;;19.79;86.66;92686.91;5032556;28;20229;-70
2022/09/02 06:37:11;;;;;;;12.13;11.02;;;;;;;19.71;87.85;92693.88;5033118;28;20252;-70
2022/09/02 06:39:37;;;;;;;12.90;11.73;;;;;;;19.70;87.30;92687.06;5032643;28;20221;-70
2022/09/02 06:42:02;;;;;;;15.03;13.37;;;;;;;19.64;88.54;92691.03;5032196;28;20186;-71
2022/09/02 06:44:28;;;;;;;13.93;12.83;;;;;;;19.46;89.63;92684.38;5032868;28;20236;-70
2022/09/02 06:46:57;;;;;;;13.93;12.63;;;;;;;19.54;90.13;92686.16;5032955;28;20209;-70
2022/09/02 06:49:25;;;;;;;13.70;12.60;;;;;;;19.63;89.99;92684.16;5032917;28;20249;-71
2022/09/02 06:51:52;;;;;;;13.03;12.03;;;;;;;19.47;92.16;92691.22;5043394;28;20211;-70
2022/09/02 06:54:20;;;;;;;13.77;12.53;;;;;;;19.46;93.08;92688.91;5052417;28;20220;-69
2022/09/02 06:56:47;;;;;;;13.67;12.47;;;;;;;19.37;94.34;92673.13;5041919;28;20201;-71
2022/09/02 06:59:12;;;;;;;12.73;11.68;;;;;;;19.56;92.01;92683.97;5032756;28;20233;-70
2022/09/02 07:01:38;;;;;;;13.27;12.00;;;;;;;19.60;92.82;92698.06;5032587;28;20224;-69
2022/09/02 07:06:51;;;;;;;13.37;12.23;;;;;;;19.66;91.32;92707.34;5043402;28;20239;-70
2022/09/02 07:09:20;;;;;;;13.15;11.65;;;;;;;19.52;92.38;92704.25;5052270;28;20233;-70
2022/09/02 07:11:47;;;;;;;13.17;11.97;;;;;;;19.55;91.97;92703.59;5048996;28;20209;-70
2022/09/02 07:14:19;;;;;;;13.77;12.50;;;;;;;19.62;92.88;92709.13;5032567;28;20237;-70
2022/09/02 07:16:48;;;;;;;13.52;12.52;;;;;;;19.66;93.65;92709.25;5042313;28;20191;-69
2022/09/02 07:19:14;;;;;;;13.13;11.87;;;;;;;19.66;93.29;92691.44;5052274;28;20240;-70
2022/09/02 07:21:40;;;;;;;13.82;12.63;;;;;;;19.93;91.09;92706.69;5042352;28;20186;-70
2022/09/02 07:24:07;;;;;;;14.27;12.57;;;;;;;20.03;91.27;92714.16;5032195;28;20218;-70
2022/09/02 07:26:32;;;;;;;12.02;11.07;;;;;;;20.11;90.35;92709.88;5032116;28;20216;-70
2022/09/02 07:28:58;;;;;;;14.27;13.02;;;;;;;20.31;89.38;92715.03;5031722;28;20240;-70
2022/09/02 07:31:23;;;;;;;13.40;12.20;;;;;;;20.35;88.87;92710.63;5038720;28;20178;-70
2022/09/02 07:33:49;;;;;;;11.20;10.38;;;;;;;20.30;87.15;92712.72;5051612;28;20233;-70
2022/09/02 07:36:14;;;;;;;11.60;10.75;;;;;;;20.28;86.87;92715.69;5051887;28;20181;-70
2022/09/02 07:38:41;;;;;;;12.85;11.85;;;;;;;20.32;85.27;92690.06;5051360;28;20181;-71
2022/09/02 07:41:09;;;;;;;12.52;11.45;;;;;;;20.44;87.05;92718.44;5037281;28;20193;-70
2022/09/02 07:43:36;;;;;;;10.90;10.10;;;;;;;20.38;84.63;92695.91;5031633;28;20200;-73
2022/09/02 07:46:02;;;;;;;11.68;10.77;;;;;;;20.62;83.97;92709.84;5031477;28;20229;-70
2022/09/02 07:48:29;;;;;;;11.90;10.70;;;;;;;20.72;84.00;92713.16;5031727;28;20190;-73
2022/09/02 07:50:56;;;;;;;11.15;10.25;;;;;;;20.64;84.75;92718.25;5031561;28;20193;-70
2022/09/02 07:53:22;;;;;;;11.30;10.60;;;;;;;20.78;83.62;92714.47;5032232;28;20211;-70
2022/09/02 07:55:47;;;;;;;12.85;11.90;;;;;;;20.95;82.48;92716.81;5031337;28;20248;-70
2022/09/02 07:58:15;;;;;;;10.90;10.20;;;;;;;21.06;80.42;92718.66;5031919;28;20190;-71
2022/09/02 08:00:41;;;;;;;12.23;11.15;;;;;;;21.00;79.07;92713.91;5032049;28;20253;-70
2022/09/02 08:03:08;;;;;;;10.50;9.80;;;;;;;20.93;79.38;92727.00;5051654;28;20191;-71
2022/09/02 08:05:35;;;;;;;11.57;10.63;;;;;;;20.89;81.47;92728.78;5050250;28;20252;-70
2022/09/02 08:08:01;;;;;;;11.43;10.63;;;;;;;21.02;80.29;92730.28;5034229;28;20222;-70
2022/09/02 08:10:28;;;;;;;10.50;9.60;;;;;;;20.96;78.04;92729.00;5031418;28;20227;-71
2022/09/02 08:12:56;;;;;;;11.98;11.05;;;;;;;20.78;80.33;92738.34;5031054;28;20178;-70
2022/09/02 08:15:24;;;;;;;10.80;9.85;;;;;;;20.70;81.41;92742.69;5031279;28;20233;-70
2022/09/02 08:17:49;;;;;;;13.40;10.88;;;;;;;20.73;81.00;92736.72;5031032;28;20186;-70
2022/09/02 08:20:16;;;;;;;11.10;10.27;;;;;;;20.76;80.72;92735.25;5031038;28;20226;-71
2022/09/02 08:22:42;;;;;;;12.70;11.65;;;;;;;20.73;80.25;92747.31;5030887;28;20200;-70
2022/09/02 08:25:08;;;;;;;11.13;10.18;;;;;;;20.62;80.35;92730.31;5030983;28;20236;-70
2022/09/02 08:27:35;;;;;;;11.38;10.57;;;;;;;20.65;80.92;92741.00;5031280;28;20222;-70
2022/09/02 08:30:01;;;;;;;12.70;11.57;;;;;;;20.42;81.24;92710.81;5030751;28;20230;-70
2022/09/02 08:32:28;;;;;;;11.50;10.70;;;;;;;20.60;81.30;92741.28;5030681;28;20209;-71
2022/09/02 08:34:53;;;;;;;12.55;11.30;;;;;;;20.60;84.69;92740.50;5030639;28;20899;-70
2022/09/02 08:37:19;;;;;;;11.35;10.45;;;;;;;20.62;85.55;92746.25;5030852;28;20187;-70
2022/09/02 08:39:46;;;;;;;12.25;11.35;;;;;;;20.54;84.84;92737.31;5029901;28;20236;-70
2022/09/02 08:42:15;;;;;;;13.15;11.68;;;;;;;20.65;83.82;92738.38;5030940;28;20195;-71
2022/09/02 08:44:40;;;;;;;12.27;11.27;;;;;;;20.56;82.62;92736.97;5030050;28;20241;-70
2022/09/02 08:47:14;;;;;;;12.52;11.50;;;;;;;20.49;82.66;92728.81;5030435;28;20226;-70
2022/09/02 08:49:48;;;;;;;13.60;12.45;;;;;;;20.33;84.00;92707.53;5030238;28;20223;-71
2022/09/02 08:52:29;;;;;;;14.45;13.23;;;;;;;20.58;84.73;92727.56;5030660;28;20183;-71
2022/09/02 08:54:55;;;;;;;13.35;12.23;;;;;;;20.57;81.80;92712.78;5030390;28;20244;-70
2022/09/02 08:57:24;;;;;;;12.90;11.73;;;;;;;20.40;83.73;92699.00;5045370;28;20181;-72
2022/09/02 08:59:49;;;;;;;13.80;12.40;;;;;;;20.08;85.31;92711.28;5049839;28;20244;-70
2022/09/02 09:02:37;;;;;;;13.57;12.35;;;;;;;20.55;84.81;92728.25;5036117;28;20226;-71
2022/09/02 09:05:14;;;;;;;13.77;12.60;;;;;;;20.79;83.80;92724.72;5030119;28;20921;-70
2022/09/02 09:08:01;;;;;;;13.80;12.55;;;;;;;20.82;83.09;92728.59;5030446;28;20325;-70
2022/09/02 09:10:53;;;;;;;15.05;12.90;;;;;;;20.74;84.51;92727.63;5030128;28;20246;-70
2022/09/02 09:13:54;;;;;;;13.23;12.07;;;;;;;20.96;84.17;92721.03;5026081;28;20195;-70
2022/09/02 09:16:34;;;;;;;12.45;11.38;;;;;;;20.90;82.46;92720.50;5021862;28;20218;-70
2022/09/02 09:19:25;;;;;;;14.52;13.23;;;;;;;21.12;82.13;92717.28;5062016;28;20234;-70
2022/09/02 09:21:54;;;;;;;13.07;11.95;;;;;;;21.43;79.56;92716.56;5062296;28;20288;-70
2022/09/02 09:24:33;;;;;;;14.45;12.60;;;;;;;21.47;78.49;92720.06;5030298;28;20281;-69
2022/09/02 09:27:01;;;;;;;13.07;11.82;;;;;;;21.91;77.17;92717.03;5029380;28;20200;-70
2022/09/02 09:29:31;;;;;;;12.23;11.10;;;;;;;21.49;76.90;92692.06;5029797;28;20291;-70
2022/09/02 09:31:58;;;;;;;13.23;12.00;;;;;;;22.57;75.40;92722.28;5028804;28;20189;-71
2022/09/02 09:35:01;;;;;;;13.02;11.82;;;;;;;21.48;77.57;92716.31;5029825;28;20291;-71
2022/09/02 09:37:29;;;;;;;13.23;12.02;;;;;;;22.12;77.73;92708.72;5030323;28;20215;-70
2022/09/02 09:39:54;;;;;;;15.85;14.25;;;;;;;21.16;79.46;92702.25;5028958;28;20243;-70
2022/09/02 09:42:30;;;;;;;12.75;11.65;;;;;;;21.06;79.84;92691.34;5039755;28;20181;-70
2022/09/02 09:44:56;;;;;;;13.70;12.40;;;;;;;22.21;76.51;92704.75;5029645;28;20368;-69
2022/09/02 09:47:24;;;;;;;13.55;12.27;;;;;;;21.70;76.19;92662.56;5029844;28;20225;-71
2022/09/02 09:50:08;;;;;;;14.40;13.07;;;;;;;21.80;78.26;92704.59;5029339;28;20289;-70
2022/09/02 09:52:33;;;;;;;13.98;12.77;;;;;;;22.41;76.59;92684.31;5029111;28;20203;-71
2022/09/02 09:55:18;;;;;;;14.55;12.80;;;;;;;23.10;73.79;92712.66;5029739;28;20233;-70
2022/09/02 09:57:46;;;;;;;16.50;13.25;;;;;;;22.44;76.16;92707.53;5029939;28;20867;-70
2022/09/02 10:00:27;;;;;;;14.95;13.27;;;;;;;22.96;72.71;92723.81;5029696;28;20284;-71
2022/09/02 10:02:59;;;;;;;15.50;14.10;;;;;;;22.67;74.42;92711.09;5029662;28;20198;-71
2022/09/02 10:05:24;;;;;;;15.90;14.07;;;;;;;22.50;75.34;92716.78;5029912;28;20233;-69
2022/09/02 10:07:58;;;;;;;16.58;14.55;;;;;;;22.64;73.06;92719.78;5029821;28;20248;-71
2022/09/02 10:10:26;;;;;;;16.02;14.52;;;;;;;22.24;76.01;92722.69;5029667;28;20239;-70
2022/09/02 10:12:54;;;;;;;18.20;15.50;;;;;;;21.27;78.94;92718.44;5017736;28;20439;-72
2022/09/02 10:15:30;;;;;;;16.13;14.55;;;;;;;21.23;80.66;92701.66;5009899;28;20249;-70
2022/09/02 10:18:43;;;;;;;17.08;15.10;;;;;;;21.97;77.31;92712.97;5025390;28;20264;-70
2022/09/02 10:21:15;;;;;;;19.45;13.98;;;;;;;22.52;74.49;92714.59;4949840;29;20219;-70
2022/09/02 10:24:16;;;;;;;16.45;14.48;;;;;;;22.47;75.09;92714.81;4949768;29;20193;-70
2022/09/02 10:26:45;;;;;;;17.13;15.45;;;;;;;22.81;73.06;92711.38;5007497;28;20221;-70
2022/09/02 10:29:19;;;;;;;15.73;14.13;;;;;;;22.32;77.04;92714.88;5029254;28;20228;-70
2022/09/02 10:32:05;;;;;;;18.70;14.20;;;;;;;22.77;73.76;92713.19;5029340;28;20196;-70
2022/09/02 10:34:45;;;;;;;16.35;14.75;;;;;;;22.83;72.82;92719.78;5029025;28;20296;-71
2022/09/02 10:37:23;;;;;;;17.60;15.52;;;;;;;22.69;73.38;92724.06;5042692;28;20183;-71
2022/09/02 10:39:57;;;;;;;16.20;14.43;;;;;;;22.25;75.38;92715.50;5039004;28;21168;-69
2022/09/02 10:42:23;;;;;;;17.77;15.73;;;;;;;21.88;77.70;92714.28;5029066;28;20196;-71
2022/09/02 10:45:06;;;;;;;22.02;15.23;;;;;;;22.33;76.46;92705.78;5029161;28;20292;-69
2022/09/02 10:47:37;;;;;;;17.02;14.63;;;;;;;22.34;75.37;92700.09;5029110;28;20206;-70
2022/09/02 10:50:22;;;;;;;17.27;15.25;;;;;;;22.19;75.80;92717.63;5029534;28;20268;-70
2022/09/02 10:53:11;;;;;;;18.67;16.63;;;;;;;22.29;75.50;92710.25;5029008;28;20189;-71
2022/09/02 10:55:56;;;;;;;18.27;16.35;;;;;;;21.63;76.24;92694.28;5029461;28;20233;-70
2022/09/02 10:58:27;;;;;;;16.77;15.15;;;;;;;22.37;74.57;92718.03;5049370;28;20189;-70
2022/09/02 11:00:55;;;;;;;19.83;16.45;;;;;;;22.23;75.48;92723.03;5047999;28;20778;-71
2022/09/02 11:03:44;;;;;;;16.05;14.45;;;;;;;23.49;71.16;92709.59;5051631;28;20252;-71
2022/09/02 11:06:22;;;;;;;20.98;15.27;;;;;;;23.55;67.97;92712.72;5041085;28;20279;-69
2022/09/02 11:08:53;;;;;;;18.83;15.65;;;;;;;23.40;69.08;92711.75;5052250;28;20247;-70
2022/09/02 11:11:52;;;;;;;18.35;15.77;;;;;;;23.32;69.60;92699.41;5051342;28;20195;-70
2022/09/02 11:14:33;;;;;;;21.08;15.90;;;;;;;23.36;68.77;92689.56;5012481;28;20237;-71
2022/09/02 11:17:13;;;;;;;17.63;15.93;;;;;;;23.31;69.76;92707.75;5036612;28;20215;-71
2022/09/02 11:19:52;;;;;;;17.00;15.25;;;;;;;23.44;69.21;92699.22;5052140;28;20228;-72
2022/09/02 11:22:39;;;;;;;20.30;16.20;;;;;;;22.91;70.97;92700.13;5051646;28;20189;-70
2022/09/02 11:25:24;;;;;;;16.65;15.05;;;;;;;23.08;71.01;92678.38;5045470;28;20222;-71
2022/09/02 11:28:03;;;;;;;16.30;14.85;;;;;;;23.13;70.70;92696.75;5032042;28;20259;-70